sensor_id;sensor_type;location;lat;lon;timestamp;temperature;humidity
64549;DHT22;49838;51.798;10.954;2022-10-16T00:00:41;23.00;41.20
64549;DHT22;49838;51.798;10.954;2022-10-16T00:03:10;23.00;41.10
64549;DHT22;49838;51.798;10.954;2022-10-16T00:05:38;23.00;41.10
64549;DHT22;49838;51.798;10.954;2022-10-16T00:08:06;23.00;41.00
64549;DHT22;49838;51.798;10.954;2022-10-16T00:10:34;23.00;41.00
64549;DHT22;49838;51.798;10.954;2022-10-16T00:13:02;23.00;41.10
64549;DHT22;49838;51.798;10.954;2022-10-16T00:15:30;23.00;41.10
64549;DHT22;49838;51.798;10.954;2022-10-16T00:18:02;22.90;41.00
64549;DHT22;49838;51.798;10.954;2022-10-16T00:20:31;22.90;41.00
64549;DHT22;49838;51.798;10.954;2022-10-16T00:23:02;22.80;40.90
64549;DHT22;49838;51.798;10.954;2022-10-16T00:25:30;22.80;40.90
64549;DHT22;49838;51.798;10.954;2022-10-16T00:27:59;22.70;40.80
64549;DHT22;49838;51.798;10.954;2022-10-16T00:30:27;22.70;40.80
64549;DHT22;49838;51.798;10.954;2022-10-16T00:32:55;22.60;40.70
64549;DHT22;49838;51.798;10.954;2022-10-16T00:35:22;22.60;40.80
64549;DHT22;49838;51.798;10.954;2022-10-16T00:37:51;22.60;40.80
64549;DHT22;49838;51.798;10.954;2022-10-16T00:40:18;22.50;40.70
64549;DHT22;49838;51.798;10.954;2022-10-16T00:42:45;22.50;40.70
64549;DHT22;49838;51.798;10.954;2022-10-16T00:45:13;22.40;40.60
64549;DHT22;49838;51.798;10.954;2022-10-16T00:47:41;22.40;40.60
64549;DHT22;49838;51.798;10.954;2022-10-16T00:50:13;22.30;40.50
64549;DHT22;49838;51.798;10.954;2022-10-16T00:52:46;22.20;40.50
64549;DHT22;49838;51.798;10.954;2022-10-16T00:55:17;22.20;40.50
64549;DHT22;49838;51.798;10.954;2022-10-16T00:57:45;22.10;40.50
64549;DHT22;49838;51.798;10.954;2022-10-16T01:00:16;22.00;40.40
64549;DHT22;49838;51.798;10.954;2022-10-16T01:02:51;22.00;40.50
64549;DHT22;49838;51.798;10.954;2022-10-16T01:05:19;21.90;40.40
64549;DHT22;49838;51.798;10.954;2022-10-16T01:07:49;21.90;40.40
64549;DHT22;49838;51.798;10.954;2022-10-16T01:10:33;21.90;40.40
64549;DHT22;49838;51.798;10.954;2022-10-16T01:13:04;21.90;40.40
64549;DHT22;49838;51.798;10.954;2022-10-16T01:15:34;21.90;40.40
64549;DHT22;49838;51.798;10.954;2022-10-16T01:18:05;21.90;40.40
64549;DHT22;49838;51.798;10.954;2022-10-16T01:20:40;21.80;40.40
64549;DHT22;49838;51.798;10.954;2022-10-16T01:23:15;21.80;40.40
64549;DHT22;49838;51.798;10.954;2022-10-16T01:26:07;21.70;40.40
64549;DHT22;49838;51.798;10.954;2022-10-16T01:28:44;21.70;40.40
64549;DHT22;49838;51.798;10.954;2022-10-16T01:31:18;21.70;40.40
64549;DHT22;49838;51.798;10.954;2022-10-16T01:33:50;21.70;40.40
64549;DHT22;49838;51.798;10.954;2022-10-16T01:36:24;21.70;40.40
64549;DHT22;49838;51.798;10.954;2022-10-16T01:38:59;21.70;40.40
64549;DHT22;49838;51.798;10.954;2022-10-16T01:41:30;21.70;40.40
64549;DHT22;49838;51.798;10.954;2022-10-16T01:44:03;21.60;40.40
64549;DHT22;49838;51.798;10.954;2022-10-16T01:46:35;21.60;40.30
64549;DHT22;49838;51.798;10.954;2022-10-16T01:49:04;21.60;40.30
64549;DHT22;49838;51.798;10.954;2022-10-16T01:51:33;21.50;40.30
64549;DHT22;49838;51.798;10.954;2022-10-16T01:54:02;21.50;40.30
64549;DHT22;49838;51.798;10.954;2022-10-16T01:56:33;21.50;40.30
64549;DHT22;49838;51.798;10.954;2022-10-16T01:59:05;21.50;40.30
64549;DHT22;49838;51.798;10.954;2022-10-16T02:01:37;21.50;40.30
64549;DHT22;49838;51.798;10.954;2022-10-16T02:04:08;21.50;40.30
64549;DHT22;49838;51.798;10.954;2022-10-16T02:06:38;21.40;40.30
64549;DHT22;49838;51.798;10.954;2022-10-16T02:09:06;21.40;40.30
64549;DHT22;49838;51.798;10.954;2022-10-16T02:11:33;21.40;40.40
64549;DHT22;49838;51.798;10.954;2022-10-16T02:14:01;21.40;40.40
64549;DHT22;49838;51.798;10.954;2022-10-16T02:16:36;21.40;40.40
64549;DHT22;49838;51.798;10.954;2022-10-16T02:19:05;21.40;40.40
64549;DHT22;49838;51.798;10.954;2022-10-16T02:21:35;21.50;40.40
64549;DHT22;49838;51.798;10.954;2022-10-16T02:24:11;21.50;40.40
64549;DHT22;49838;51.798;10.954;2022-10-16T02:26:45;21.50;40.30
64549;DHT22;49838;51.798;10.954;2022-10-16T02:29:21;21.50;40.30
64549;DHT22;49838;51.798;10.954;2022-10-16T02:31:53;21.50;40.30
64549;DHT22;49838;51.798;10.954;2022-10-16T02:34:25;21.50;40.30
64549;DHT22;49838;51.798;10.954;2022-10-16T02:36:55;21.60;40.40
64549;DHT22;49838;51.798;10.954;2022-10-16T02:39:25;21.50;40.40
64549;DHT22;49838;51.798;10.954;2022-10-16T02:41:54;21.50;40.40
64549;DHT22;49838;51.798;10.954;2022-10-16T02:44:21;21.50;40.40
64549;DHT22;49838;51.798;10.954;2022-10-16T02:46:49;21.50;40.30
64549;DHT22;49838;51.798;10.954;2022-10-16T02:49:17;21.50;40.30
64549;DHT22;49838;51.798;10.954;2022-10-16T02:51:45;21.50;40.30
64549;DHT22;49838;51.798;10.954;2022-10-16T02:54:12;21.50;40.30
64549;DHT22;49838;51.798;10.954;2022-10-16T02:56:39;21.40;40.30
64549;DHT22;49838;51.798;10.954;2022-10-16T02:59:07;21.40;40.30
64549;DHT22;49838;51.798;10.954;2022-10-16T03:01:34;21.50;40.40
64549;DHT22;49838;51.798;10.954;2022-10-16T03:04:01;21.50;40.40
64549;DHT22;49838;51.798;10.954;2022-10-16T03:06:30;21.50;40.40
64549;DHT22;49838;51.798;10.954;2022-10-16T03:08:58;21.50;40.40
64549;DHT22;49838;51.798;10.954;2022-10-16T03:11:25;21.50;40.40
64549;DHT22;49838;51.798;10.954;2022-10-16T03:13:54;21.40;40.30
64549;DHT22;49838;51.798;10.954;2022-10-16T03:16:21;21.50;40.40
64549;DHT22;49838;51.798;10.954;2022-10-16T03:18:48;21.40;40.30
64549;DHT22;49838;51.798;10.954;2022-10-16T03:21:16;21.40;40.30
64549;DHT22;49838;51.798;10.954;2022-10-16T03:23:45;21.40;40.40
64549;DHT22;49838;51.798;10.954;2022-10-16T03:26:12;21.40;40.30
64549;DHT22;49838;51.798;10.954;2022-10-16T03:28:39;21.40;40.40
64549;DHT22;49838;51.798;10.954;2022-10-16T03:31:07;21.40;40.40
64549;DHT22;49838;51.798;10.954;2022-10-16T03:33:35;21.40;40.40
64549;DHT22;49838;51.798;10.954;2022-10-16T03:36:02;21.40;40.40
64549;DHT22;49838;51.798;10.954;2022-10-16T03:38:30;21.40;40.40
64549;DHT22;49838;51.798;10.954;2022-10-16T03:40:58;21.40;40.40
64549;DHT22;49838;51.798;10.954;2022-10-16T03:43:26;21.50;40.50
64549;DHT22;49838;51.798;10.954;2022-10-16T03:45:53;21.40;40.40
64549;DHT22;49838;51.798;10.954;2022-10-16T03:48:21;21.40;40.50
64549;DHT22;49838;51.798;10.954;2022-10-16T03:50:48;21.40;40.50
64549;DHT22;49838;51.798;10.954;2022-10-16T03:53:17;21.40;40.50
64549;DHT22;49838;51.798;10.954;2022-10-16T03:55:45;21.50;40.50
64549;DHT22;49838;51.798;10.954;2022-10-16T03:58:13;21.50;40.50
64549;DHT22;49838;51.798;10.954;2022-10-16T04:00:40;21.50;40.40
64549;DHT22;49838;51.798;10.954;2022-10-16T04:03:08;21.50;40.50
64549;DHT22;49838;51.798;10.954;2022-10-16T04:05:36;21.50;40.50
64549;DHT22;49838;51.798;10.954;2022-10-16T04:08:03;21.50;40.50
64549;DHT22;49838;51.798;10.954;2022-10-16T04:10:31;21.50;40.50
64549;DHT22;49838;51.798;10.954;2022-10-16T04:12:58;21.60;40.50
64549;DHT22;49838;51.798;10.954;2022-10-16T04:15:27;21.60;40.50
64549;DHT22;49838;51.798;10.954;2022-10-16T04:17:54;21.60;40.50
64549;DHT22;49838;51.798;10.954;2022-10-16T04:20:21;21.50;40.50
64549;DHT22;49838;51.798;10.954;2022-10-16T04:22:49;21.60;40.50
64549;DHT22;49838;51.798;10.954;2022-10-16T04:25:16;21.50;40.40
64549;DHT22;49838;51.798;10.954;2022-10-16T04:27:43;21.50;40.40
64549;DHT22;49838;51.798;10.954;2022-10-16T04:30:11;21.50;40.40
64549;DHT22;49838;51.798;10.954;2022-10-16T04:32:40;21.40;40.40
64549;DHT22;49838;51.798;10.954;2022-10-16T04:35:08;21.30;40.30
64549;DHT22;49838;51.798;10.954;2022-10-16T04:37:35;21.30;40.40
64549;DHT22;49838;51.798;10.954;2022-10-16T04:40:03;21.20;40.40
64549;DHT22;49838;51.798;10.954;2022-10-16T04:42:31;21.20;40.30
64549;DHT22;49838;51.798;10.954;2022-10-16T04:44:58;21.20;40.40
64549;DHT22;49838;51.798;10.954;2022-10-16T04:47:26;21.20;40.30
64549;DHT22;49838;51.798;10.954;2022-10-16T04:49:54;21.10;40.30
64549;DHT22;49838;51.798;10.954;2022-10-16T04:52:22;21.10;40.30
64549;DHT22;49838;51.798;10.954;2022-10-16T04:54:50;21.00;40.20
64549;DHT22;49838;51.798;10.954;2022-10-16T04:57:17;21.00;40.20
64549;DHT22;49838;51.798;10.954;2022-10-16T04:59:45;20.90;40.20
64549;DHT22;49838;51.798;10.954;2022-10-16T05:02:12;20.90;40.30
64549;DHT22;49838;51.798;10.954;2022-10-16T05:04:39;20.80;40.20
64549;DHT22;49838;51.798;10.954;2022-10-16T05:07:08;20.80;40.20
64549;DHT22;49838;51.798;10.954;2022-10-16T05:09:35;20.80;40.10
64549;DHT22;49838;51.798;10.954;2022-10-16T05:12:03;20.80;40.10
64549;DHT22;49838;51.798;10.954;2022-10-16T05:14:30;20.80;40.10
64549;DHT22;49838;51.798;10.954;2022-10-16T05:16:58;20.80;40.10
64549;DHT22;49838;51.798;10.954;2022-10-16T05:19:26;20.70;40.20
64549;DHT22;49838;51.798;10.954;2022-10-16T05:21:53;20.70;40.20
64549;DHT22;49838;51.798;10.954;2022-10-16T05:24:22;20.70;40.20
64549;DHT22;49838;51.798;10.954;2022-10-16T05:26:50;20.60;40.20
64549;DHT22;49838;51.798;10.954;2022-10-16T05:29:18;20.60;40.30
64549;DHT22;49838;51.798;10.954;2022-10-16T05:31:45;20.60;40.30
64549;DHT22;49838;51.798;10.954;2022-10-16T05:34:13;20.60;40.20
64549;DHT22;49838;51.798;10.954;2022-10-16T05:36:40;20.60;40.20
64549;DHT22;49838;51.798;10.954;2022-10-16T05:39:07;20.60;40.20
64549;DHT22;49838;51.798;10.954;2022-10-16T05:41:36;20.60;40.20
64549;DHT22;49838;51.798;10.954;2022-10-16T05:44:04;20.70;40.30
64549;DHT22;49838;51.798;10.954;2022-10-16T05:46:32;20.70;40.30
64549;DHT22;49838;51.798;10.954;2022-10-16T05:48:59;20.80;40.40
64549;DHT22;49838;51.798;10.954;2022-10-16T05:51:27;20.80;40.40
64549;DHT22;49838;51.798;10.954;2022-10-16T05:53:54;20.80;40.40
64549;DHT22;49838;51.798;10.954;2022-10-16T05:56:21;20.80;40.30
64549;DHT22;49838;51.798;10.954;2022-10-16T05:58:53;20.90;40.40
64549;DHT22;49838;51.798;10.954;2022-10-16T06:01:20;20.90;40.50
64549;DHT22;49838;51.798;10.954;2022-10-16T06:03:50;21.00;40.50
64549;DHT22;49838;51.798;10.954;2022-10-16T06:06:18;21.00;40.40
64549;DHT22;49838;51.798;10.954;2022-10-16T06:08:47;21.10;40.40
64549;DHT22;49838;51.798;10.954;2022-10-16T06:11:16;21.10;40.40
64549;DHT22;49838;51.798;10.954;2022-10-16T06:13:45;21.10;40.60
64549;DHT22;49838;51.798;10.954;2022-10-16T06:16:17;21.20;40.70
64549;DHT22;49838;51.798;10.954;2022-10-16T06:18:45;21.20;40.80
64549;DHT22;49838;51.798;10.954;2022-10-16T06:21:14;21.30;40.90
64549;DHT22;49838;51.798;10.954;2022-10-16T06:23:44;21.30;40.80
64549;DHT22;49838;51.798;10.954;2022-10-16T06:26:13;21.40;40.90
64549;DHT22;49838;51.798;10.954;2022-10-16T06:28:41;21.50;41.00
64549;DHT22;49838;51.798;10.954;2022-10-16T06:31:09;21.50;41.00
64549;DHT22;49838;51.798;10.954;2022-10-16T06:33:39;21.50;41.00
64549;DHT22;49838;51.798;10.954;2022-10-16T06:36:07;21.60;40.90
64549;DHT22;49838;51.798;10.954;2022-10-16T06:38:37;21.60;41.00
64549;DHT22;49838;51.798;10.954;2022-10-16T06:41:05;21.70;41.00
64549;DHT22;49838;51.798;10.954;2022-10-16T06:43:33;21.70;41.10
64549;DHT22;49838;51.798;10.954;2022-10-16T06:46:02;21.80;41.20
64549;DHT22;49838;51.798;10.954;2022-10-16T06:48:30;21.80;41.10
64549;DHT22;49838;51.798;10.954;2022-10-16T06:51:00;22.00;41.20
64549;DHT22;49838;51.798;10.954;2022-10-16T06:53:28;22.10;41.20
64549;DHT22;49838;51.798;10.954;2022-10-16T06:55:57;22.20;41.20
64549;DHT22;49838;51.798;10.954;2022-10-16T06:58:25;22.30;41.10
64549;DHT22;49838;51.798;10.954;2022-10-16T07:00:55;22.40;41.20
64549;DHT22;49838;51.798;10.954;2022-10-16T07:03:22;22.50;41.20
64549;DHT22;49838;51.798;10.954;2022-10-16T07:05:50;22.60;41.10
64549;DHT22;49838;51.798;10.954;2022-10-16T07:08:19;22.70;41.20
64549;DHT22;49838;51.798;10.954;2022-10-16T07:10:46;22.70;41.10
64549;DHT22;49838;51.798;10.954;2022-10-16T07:13:13;22.90;41.20
64549;DHT22;49838;51.798;10.954;2022-10-16T07:15:41;22.90;41.20
64549;DHT22;49838;51.798;10.954;2022-10-16T07:18:08;22.90;41.20
64549;DHT22;49838;51.798;10.954;2022-10-16T07:20:35;23.00;41.60
64549;DHT22;49838;51.798;10.954;2022-10-16T07:23:03;23.10;41.40
64549;DHT22;49838;51.798;10.954;2022-10-16T07:25:32;23.10;41.40
64549;DHT22;49838;51.798;10.954;2022-10-16T07:27:59;23.20;41.40
64549;DHT22;49838;51.798;10.954;2022-10-16T07:30:26;23.20;41.50
64549;DHT22;49838;51.798;10.954;2022-10-16T07:32:54;23.30;41.50
64549;DHT22;49838;51.798;10.954;2022-10-16T07:35:21;23.40;41.50
64549;DHT22;49838;51.798;10.954;2022-10-16T07:37:48;23.40;41.50
64549;DHT22;49838;51.798;10.954;2022-10-16T07:40:15;23.40;41.50
64549;DHT22;49838;51.798;10.954;2022-10-16T07:42:44;23.40;41.50
64549;DHT22;49838;51.798;10.954;2022-10-16T07:45:11;23.50;41.60
64549;DHT22;49838;51.798;10.954;2022-10-16T07:47:39;23.50;41.60
64549;DHT22;49838;51.798;10.954;2022-10-16T07:50:06;23.60;41.70
64549;DHT22;49838;51.798;10.954;2022-10-16T07:52:34;23.60;41.80
64549;DHT22;49838;51.798;10.954;2022-10-16T07:55:01;23.70;41.80
64549;DHT22;49838;51.798;10.954;2022-10-16T07:57:29;23.80;41.90
64549;DHT22;49838;51.798;10.954;2022-10-16T07:59:58;23.90;41.90
64549;DHT22;49838;51.798;10.954;2022-10-16T08:02:35;23.90;41.90
64549;DHT22;49838;51.798;10.954;2022-10-16T08:05:03;23.90;41.90
64549;DHT22;49838;51.798;10.954;2022-10-16T08:07:31;24.00;42.00
64549;DHT22;49838;51.798;10.954;2022-10-16T08:09:58;24.00;42.00
64549;DHT22;49838;51.798;10.954;2022-10-16T08:12:26;23.90;41.90
64549;DHT22;49838;51.798;10.954;2022-10-16T08:14:53;23.90;41.90
64549;DHT22;49838;51.798;10.954;2022-10-16T08:17:22;23.90;41.90
64549;DHT22;49838;51.798;10.954;2022-10-16T08:19:49;23.90;41.90
64549;DHT22;49838;51.798;10.954;2022-10-16T08:22:17;24.00;42.00
64549;DHT22;49838;51.798;10.954;2022-10-16T08:24:44;24.00;41.90
64549;DHT22;49838;51.798;10.954;2022-10-16T08:27:11;24.00;41.80
64549;DHT22;49838;51.798;10.954;2022-10-16T08:29:39;24.10;41.90
64549;DHT22;49838;51.798;10.954;2022-10-16T08:32:06;24.20;41.80
64549;DHT22;49838;51.798;10.954;2022-10-16T08:34:35;24.10;41.80
64549;DHT22;49838;51.798;10.954;2022-10-16T08:37:02;24.10;41.80
64549;DHT22;49838;51.798;10.954;2022-10-16T08:39:29;24.20;41.90
64549;DHT22;49838;51.798;10.954;2022-10-16T08:42:04;24.20;41.80
64549;DHT22;49838;51.798;10.954;2022-10-16T08:44:57;24.20;41.90
64549;DHT22;49838;51.798;10.954;2022-10-16T08:47:35;24.20;41.90
64549;DHT22;49838;51.798;10.954;2022-10-16T08:50:14;24.30;41.90
64549;DHT22;49838;51.798;10.954;2022-10-16T08:52:48;24.30;42.00
64549;DHT22;49838;51.798;10.954;2022-10-16T08:55:19;24.30;42.00
64549;DHT22;49838;51.798;10.954;2022-10-16T08:57:56;24.40;42.00
64549;DHT22;49838;51.798;10.954;2022-10-16T09:00:23;24.40;41.90
64549;DHT22;49838;51.798;10.954;2022-10-16T09:02:53;24.50;41.90
64549;DHT22;49838;51.798;10.954;2022-10-16T09:05:36;24.50;41.90
64549;DHT22;49838;51.798;10.954;2022-10-16T09:08:17;24.60;42.00
64549;DHT22;49838;51.798;10.954;2022-10-16T09:10:56;24.70;42.00
64549;DHT22;49838;51.798;10.954;2022-10-16T09:13:27;24.70;42.00
64549;DHT22;49838;51.798;10.954;2022-10-16T09:16:13;24.80;42.10
64549;DHT22;49838;51.798;10.954;2022-10-16T09:18:48;24.90;42.00
64549;DHT22;49838;51.798;10.954;2022-10-16T09:21:23;25.00;42.00
64549;DHT22;49838;51.798;10.954;2022-10-16T09:23:52;25.00;41.90
64549;DHT22;49838;51.798;10.954;2022-10-16T09:26:24;25.10;42.00
64549;DHT22;49838;51.798;10.954;2022-10-16T09:28:51;25.10;41.90
64549;DHT22;49838;51.798;10.954;2022-10-16T09:31:20;25.20;41.70
64549;DHT22;49838;51.798;10.954;2022-10-16T09:33:50;25.30;41.60
64549;DHT22;49838;51.798;10.954;2022-10-16T09:36:22;25.40;41.70
64549;DHT22;49838;51.798;10.954;2022-10-16T09:39:01;25.50;41.50
64549;DHT22;49838;51.798;10.954;2022-10-16T09:41:30;25.50;41.50
64549;DHT22;49838;51.798;10.954;2022-10-16T09:43:58;25.60;41.50
64549;DHT22;49838;51.798;10.954;2022-10-16T09:46:28;25.70;41.50
64549;DHT22;49838;51.798;10.954;2022-10-16T09:48:57;25.80;41.60
64549;DHT22;49838;51.798;10.954;2022-10-16T09:51:28;26.00;41.60
64549;DHT22;49838;51.798;10.954;2022-10-16T09:53:58;26.10;41.50
64549;DHT22;49838;51.798;10.954;2022-10-16T09:56:27;26.30;41.50
64549;DHT22;49838;51.798;10.954;2022-10-16T09:58:57;26.50;41.20
64549;DHT22;49838;51.798;10.954;2022-10-16T10:01:27;26.60;41.10
64549;DHT22;49838;51.798;10.954;2022-10-16T10:03:58;26.80;41.20
64549;DHT22;49838;51.798;10.954;2022-10-16T10:06:30;27.40;42.10
64549;DHT22;49838;51.798;10.954;2022-10-16T10:09:04;28.00;42.80
64549;DHT22;49838;51.798;10.954;2022-10-16T10:11:44;29.00;43.80
64549;DHT22;49838;51.798;10.954;2022-10-16T10:14:16;30.10;43.80
64549;DHT22;49838;51.798;10.954;2022-10-16T10:16:47;30.90;44.00
64549;DHT22;49838;51.798;10.954;2022-10-16T10:19:15;31.50;43.50
64549;DHT22;49838;51.798;10.954;2022-10-16T10:21:45;31.80;42.20
64549;DHT22;49838;51.798;10.954;2022-10-16T10:24:14;31.90;41.20
64549;DHT22;49838;51.798;10.954;2022-10-16T10:26:45;31.80;40.40
64549;DHT22;49838;51.798;10.954;2022-10-16T10:29:20;31.60;39.90
64549;DHT22;49838;51.798;10.954;2022-10-16T10:32:00;31.30;39.30
64549;DHT22;49838;51.798;10.954;2022-10-16T10:34:47;30.90;39.20
64549;DHT22;49838;51.798;10.954;2022-10-16T10:37:34;30.60;38.70
64549;DHT22;49838;51.798;10.954;2022-10-16T10:40:15;30.30;38.80
64549;DHT22;49838;51.798;10.954;2022-10-16T10:42:56;30.00;38.60
64549;DHT22;49838;51.798;10.954;2022-10-16T10:45:34;29.70;38.40
64549;DHT22;49838;51.798;10.954;2022-10-16T10:48:17;29.40;38.30
64549;DHT22;49838;51.798;10.954;2022-10-16T10:50:54;29.10;38.40
64549;DHT22;49838;51.798;10.954;2022-10-16T10:53:35;28.90;38.20
64549;DHT22;49838;51.798;10.954;2022-10-16T10:56:15;28.70;38.20
64549;DHT22;49838;51.798;10.954;2022-10-16T10:58:58;28.40;38.20
64549;DHT22;49838;51.798;10.954;2022-10-16T11:01:37;28.30;38.50
64549;DHT22;49838;51.798;10.954;2022-10-16T11:04:18;28.10;38.60
64549;DHT22;49838;51.798;10.954;2022-10-16T11:07:02;28.00;38.60
64549;DHT22;49838;51.798;10.954;2022-10-16T11:09:34;27.80;38.60
64549;DHT22;49838;51.798;10.954;2022-10-16T11:12:06;27.60;38.60
64549;DHT22;49838;51.798;10.954;2022-10-16T11:14:40;27.60;38.90
64549;DHT22;49838;51.798;10.954;2022-10-16T11:17:13;28.00;39.50
64549;DHT22;49838;51.798;10.954;2022-10-16T11:19:46;28.50;40.20
64549;DHT22;49838;51.798;10.954;2022-10-16T11:22:18;28.90;40.20
64549;DHT22;49838;51.798;10.954;2022-10-16T11:24:51;29.20;40.00
64549;DHT22;49838;51.798;10.954;2022-10-16T11:27:23;29.50;39.20
64549;DHT22;49838;51.798;10.954;2022-10-16T11:30:02;29.60;38.50
64549;DHT22;49838;51.798;10.954;2022-10-16T11:32:33;29.50;37.90
64549;DHT22;49838;51.798;10.954;2022-10-16T11:35:08;29.30;37.30
64549;DHT22;49838;51.798;10.954;2022-10-16T11:37:43;29.10;37.60
64549;DHT22;49838;51.798;10.954;2022-10-16T11:40:19;29.00;37.30
64549;DHT22;49838;51.798;10.954;2022-10-16T11:42:52;28.90;37.40
64549;DHT22;49838;51.798;10.954;2022-10-16T11:45:27;28.80;37.30
64549;DHT22;49838;51.798;10.954;2022-10-16T11:48:00;28.70;37.00
64549;DHT22;49838;51.798;10.954;2022-10-16T11:50:37;28.50;36.50
64549;DHT22;49838;51.798;10.954;2022-10-16T11:53:13;28.40;36.50
64549;DHT22;49838;51.798;10.954;2022-10-16T11:55:50;28.10;36.80
64549;DHT22;49838;51.798;10.954;2022-10-16T11:58:20;28.10;36.80
64549;DHT22;49838;51.798;10.954;2022-10-16T12:00:54;27.90;36.90
64549;DHT22;49838;51.798;10.954;2022-10-16T12:03:27;27.80;37.00
64549;DHT22;49838;51.798;10.954;2022-10-16T12:06:02;27.70;37.00
64549;DHT22;49838;51.798;10.954;2022-10-16T12:08:38;27.60;37.00
64549;DHT22;49838;51.798;10.954;2022-10-16T12:11:08;27.60;37.00
64549;DHT22;49838;51.798;10.954;2022-10-16T12:13:49;27.60;37.00
64549;DHT22;49838;51.798;10.954;2022-10-16T12:16:19;27.50;36.80
64549;DHT22;49838;51.798;10.954;2022-10-16T12:18:49;27.40;36.90
64549;DHT22;49838;51.798;10.954;2022-10-16T12:21:30;27.40;37.00
64549;DHT22;49838;51.798;10.954;2022-10-16T12:23:58;27.40;37.10
64549;DHT22;49838;51.798;10.954;2022-10-16T12:26:32;27.40;37.10
64549;DHT22;49838;51.798;10.954;2022-10-16T12:29:14;27.40;37.10
64549;DHT22;49838;51.798;10.954;2022-10-16T12:31:50;27.40;37.10
64549;DHT22;49838;51.798;10.954;2022-10-16T12:34:20;27.30;37.00
64549;DHT22;49838;51.798;10.954;2022-10-16T12:36:53;27.40;36.90
64549;DHT22;49838;51.798;10.954;2022-10-16T12:39:22;27.40;36.80
64549;DHT22;49838;51.798;10.954;2022-10-16T12:42:03;27.40;37.30
64549;DHT22;49838;51.798;10.954;2022-10-16T12:44:32;27.30;36.70
64549;DHT22;49838;51.798;10.954;2022-10-16T12:47:00;27.30;36.70
64549;DHT22;49838;51.798;10.954;2022-10-16T12:49:32;27.40;36.60
64549;DHT22;49838;51.798;10.954;2022-10-16T12:54:52;27.30;36.50
64549;DHT22;49838;51.798;10.954;2022-10-16T12:57:29;27.40;36.50
64549;DHT22;49838;51.798;10.954;2022-10-16T13:00:09;27.40;36.50
64549;DHT22;49838;51.798;10.954;2022-10-16T13:02:49;27.30;36.30
64549;DHT22;49838;51.798;10.954;2022-10-16T13:05:32;27.20;36.40
64549;DHT22;49838;51.798;10.954;2022-10-16T13:08:17;27.30;36.50
64549;DHT22;49838;51.798;10.954;2022-10-16T13:11:03;27.20;36.10
64549;DHT22;49838;51.798;10.954;2022-10-16T13:13:43;27.20;36.30
64549;DHT22;49838;51.798;10.954;2022-10-16T13:16:25;27.20;36.40
64549;DHT22;49838;51.798;10.954;2022-10-16T13:19:04;27.10;36.20
64549;DHT22;49838;51.798;10.954;2022-10-16T13:21:43;27.20;36.40
64549;DHT22;49838;51.798;10.954;2022-10-16T13:24:22;27.20;36.40
64549;DHT22;49838;51.798;10.954;2022-10-16T13:27:10;27.20;36.10
64549;DHT22;49838;51.798;10.954;2022-10-16T13:29:50;27.10;36.00
64549;DHT22;49838;51.798;10.954;2022-10-16T13:32:21;27.00;36.10
64549;DHT22;49838;51.798;10.954;2022-10-16T13:34:48;26.90;36.20
64549;DHT22;49838;51.798;10.954;2022-10-16T13:37:16;26.90;36.00
64549;DHT22;49838;51.798;10.954;2022-10-16T13:39:45;26.80;36.30
64549;DHT22;49838;51.798;10.954;2022-10-16T13:42:14;26.90;36.40
64549;DHT22;49838;51.798;10.954;2022-10-16T13:44:52;26.90;36.40
64549;DHT22;49838;51.798;10.954;2022-10-16T13:47:22;27.00;36.40
64549;DHT22;49838;51.798;10.954;2022-10-16T13:49:58;27.00;36.40
64549;DHT22;49838;51.798;10.954;2022-10-16T13:52:27;27.00;36.20
64549;DHT22;49838;51.798;10.954;2022-10-16T13:54:54;27.00;36.30
64549;DHT22;49838;51.798;10.954;2022-10-16T13:57:22;27.00;36.10
64549;DHT22;49838;51.798;10.954;2022-10-16T13:59:52;26.90;36.20
64549;DHT22;49838;51.798;10.954;2022-10-16T14:02:21;26.90;36.40
64549;DHT22;49838;51.798;10.954;2022-10-16T14:04:52;26.90;36.50
64549;DHT22;49838;51.798;10.954;2022-10-16T14:07:23;26.80;36.40
64549;DHT22;49838;51.798;10.954;2022-10-16T14:09:52;26.90;36.60
64549;DHT22;49838;51.798;10.954;2022-10-16T14:12:20;26.90;36.60
64549;DHT22;49838;51.798;10.954;2022-10-16T14:14:50;26.90;36.50
64549;DHT22;49838;51.798;10.954;2022-10-16T14:17:22;26.90;36.50
64549;DHT22;49838;51.798;10.954;2022-10-16T14:19:51;26.80;37.10
64549;DHT22;49838;51.798;10.954;2022-10-16T14:22:24;26.80;36.60
64549;DHT22;49838;51.798;10.954;2022-10-16T14:24:56;26.60;36.50
64549;DHT22;49838;51.798;10.954;2022-10-16T14:27:26;26.60;36.60
64549;DHT22;49838;51.798;10.954;2022-10-16T14:30:14;26.60;36.60
64549;DHT22;49838;51.798;10.954;2022-10-16T14:32:52;26.60;36.60
64549;DHT22;49838;51.798;10.954;2022-10-16T14:35:24;26.70;36.60
64549;DHT22;49838;51.798;10.954;2022-10-16T14:37:53;26.70;36.50
64549;DHT22;49838;51.798;10.954;2022-10-16T14:40:23;26.80;36.50
64549;DHT22;49838;51.798;10.954;2022-10-16T14:42:52;26.80;36.40
64549;DHT22;49838;51.798;10.954;2022-10-16T14:45:23;26.80;36.40
64549;DHT22;49838;51.798;10.954;2022-10-16T14:47:54;26.80;36.40
64549;DHT22;49838;51.798;10.954;2022-10-16T14:50:24;26.70;36.50
64549;DHT22;49838;51.798;10.954;2022-10-16T14:52:51;26.60;36.40
64549;DHT22;49838;51.798;10.954;2022-10-16T14:55:19;26.60;36.50
64549;DHT22;49838;51.798;10.954;2022-10-16T14:57:46;26.60;36.60
64549;DHT22;49838;51.798;10.954;2022-10-16T15:00:16;26.60;36.60
64549;DHT22;49838;51.798;10.954;2022-10-16T15:02:46;26.60;36.60
64549;DHT22;49838;51.798;10.954;2022-10-16T15:05:16;26.50;36.50
64549;DHT22;49838;51.798;10.954;2022-10-16T15:07:45;26.40;36.50
64549;DHT22;49838;51.798;10.954;2022-10-16T15:10:15;26.40;36.60
64549;DHT22;49838;51.798;10.954;2022-10-16T15:12:43;26.40;36.60
64549;DHT22;49838;51.798;10.954;2022-10-16T15:15:21;26.40;36.50
64549;DHT22;49838;51.798;10.954;2022-10-16T15:17:55;26.30;37.10
64549;DHT22;49838;51.798;10.954;2022-10-16T15:20:24;26.30;36.50
64549;DHT22;49838;51.798;10.954;2022-10-16T15:22:52;26.20;36.50
64549;DHT22;49838;51.798;10.954;2022-10-16T15:28:13;26.10;36.50
64549;DHT22;49838;51.798;10.954;2022-10-16T15:30:41;26.10;36.50
64549;DHT22;49838;51.798;10.954;2022-10-16T15:33:12;26.10;36.50
64549;DHT22;49838;51.798;10.954;2022-10-16T15:35:41;26.00;36.50
64549;DHT22;49838;51.798;10.954;2022-10-16T15:38:11;25.90;37.10
64549;DHT22;49838;51.798;10.954;2022-10-16T15:40:39;25.90;36.50
64549;DHT22;49838;51.798;10.954;2022-10-16T15:43:07;25.80;36.50